Time;durP1;ratioP1;P1;durP2;ratioP2;P2;SDS_P1;SDS_P2;PMS_P1;PMS_P2;Temp;Humidity;BMP_temperature;BMP_pressure;BME280_temperature;BME280_humidity;BME280_pressure;Samples;Min_cycle;Max_cycle;Signal;HPM_P1;HPM_P2
2023/06/23 04:06:05;;;;;;;3.67;3.20;;;18.50;99.90;;;;;;5242416;22;20519;-61
2023/06/23 04:08:33;;;;;;;4.80;4.03;;;18.60;99.90;;;;;;4996706;28;20725;-61
2023/06/23 04:11:00;;;;;;;5.43;5.03;;;18.60;99.90;;;;;;4996672;28;20742;-63
2023/06/23 04:13:27;;;;;;;4.30;3.90;;;18.60;99.90;;;;;;4997015;28;20401;-62
2023/06/23 04:15:55;;;;;;;4.17;3.63;;;18.60;99.90;;;;;;4995247;28;20493;-62
2023/06/23 04:18:23;;;;;;;4.87;4.47;;;18.70;99.90;;;;;;4996695;28;20418;-63
2023/06/23 04:20:50;;;;;;;5.33;4.23;;;18.70;99.90;;;;;;4996504;28;20453;-63
2023/06/23 04:23:18;;;;;;;5.63;3.90;;;18.80;99.90;;;;;;4996061;28;20441;-62
2023/06/23 04:25:48;;;;;;;4.03;3.63;;;18.80;99.90;;;;;;4996134;28;20423;-62
2023/06/23 04:28:16;;;;;;;4.87;4.40;;;18.90;99.90;;;;;;4996565;28;20389;-61
2023/06/23 04:30:43;;;;;;;4.90;4.40;;;18.90;99.90;;;;;;4995151;28;20954;-62
2023/06/23 04:33:09;;;;;;;5.03;4.17;;;19.00;99.90;;;;;;4996927;28;20547;-61
2023/06/23 04:35:35;;;;;;;3.70;3.40;;;19.00;99.90;;;;;;4994553;28;20475;-59
2023/06/23 04:38:12;;;;;;;6.33;4.20;;;19.00;99.90;;;;;;4996387;28;20258;-60
2023/06/23 04:40:46;;;;;;;4.27;3.63;;;19.10;99.90;;;;;;4995481;28;20453;-59
2023/06/23 04:43:16;;;;;;;3.97;3.67;;;19.10;99.90;;;;;;4994299;28;20414;-60
2023/06/23 04:46:03;;;;;;;5.27;3.90;;;19.20;99.90;;;;;;4995705;28;20408;-60
2023/06/23 04:48:37;;;;;;;5.10;4.27;;;19.30;99.90;;;;;;4977762;28;20396;-60
2023/06/23 04:51:05;;;;;;;8.60;4.50;;;19.40;99.90;;;;;;4995590;28;20424;-60
2023/06/23 04:53:46;;;;;;;5.13;4.40;;;19.50;99.90;;;;;;4986987;28;20487;-61
2023/06/23 04:56:16;;;;;;;5.90;4.83;;;19.60;99.90;;;;;;4976300;28;20801;-60
2023/06/23 04:58:43;;;;;;;5.13;4.13;;;19.70;99.90;;;;;;4974891;28;20420;-58
2023/06/23 05:01:13;;;;;;;9.13;4.67;;;19.80;99.90;;;;;;4976241;28;20411;-59
2023/06/23 05:03:40;;;;;;;5.90;5.13;;;20.00;99.90;;;;;;4975635;28;20416;-59
2023/06/23 05:06:06;;;;;;;5.67;5.17;;;20.20;99.90;;;;;;4975795;28;20478;-60
2023/06/23 05:08:33;;;;;;;5.87;5.33;;;20.30;99.90;;;;;;4975659;28;20422;-60
2023/06/23 05:11:05;;;;;;;6.27;5.20;;;20.40;99.90;;;;;;4975728;28;20420;-61
2023/06/23 05:13:33;;;;;;;5.57;5.07;;;20.40;99.90;;;;;;4975434;28;20436;-59
2023/06/23 05:16:02;;;;;;;5.60;5.00;;;20.50;99.90;;;;;;4975708;28;20507;-62
2023/06/23 05:18:29;;;;;;;5.83;5.17;;;20.50;99.90;;;;;;4975818;28;20372;-59
2023/06/23 05:20:59;;;;;;;7.73;5.77;;;20.50;99.90;;;;;;4975832;28;20404;-60
2023/06/23 05:23:26;;;;;;;5.80;5.20;;;20.50;99.90;;;;;;4975365;28;20400;-58
2023/06/23 05:25:56;;;;;;;5.90;5.40;;;20.50;99.90;;;;;;4975439;28;20941;-61
2023/06/23 05:28:26;;;;;;;7.40;6.40;;;20.40;99.90;;;;;;4975439;28;20390;-64
2023/06/23 05:30:54;;;;;;;7.57;5.97;;;20.30;99.90;;;;;;4975712;28;20374;-62
2023/06/23 05:33:21;;;;;;;5.93;5.30;;;20.20;99.90;;;;;;4975108;28;20481;-66
2023/06/23 05:35:49;;;;;;;5.17;4.40;;;20.20;99.90;;;;;;4975090;28;20453;-60
2023/06/23 05:38:16;;;;;;;7.30;5.73;;;20.10;99.90;;;;;;4975219;28;20416;-60
2023/06/23 05:40:42;;;;;;;6.20;5.67;;;20.10;99.90;;;;;;4975404;28;20511;-60
2023/06/23 05:43:07;;;;;;;7.90;7.13;;;20.10;99.90;;;;;;4975052;28;20474;-60
2023/06/23 05:45:33;;;;;;;6.13;5.53;;;20.10;99.90;;;;;;4984010;28;20195;-60
2023/06/23 05:48:07;;;;;;;7.97;6.57;;;20.10;99.90;;;;;;4994521;28;20656;-60
2023/06/23 05:50:35;;;;;;;7.70;6.83;;;20.20;99.90;;;;;;4975237;28;20190;-60
2023/06/23 05:53:11;;;;;;;7.50;6.43;;;20.20;99.90;;;;;;4975903;28;20518;-59
2023/06/23 05:55:45;;;;;;;12.07;8.17;;;20.30;99.90;;;;;;4975131;28;20427;-58
2023/06/23 05:58:13;;;;;;;8.30;7.37;;;20.30;99.90;;;;;;4975210;28;20395;-58
2023/06/23 06:00:45;;;;;;;7.70;6.87;;;20.30;99.90;;;;;;4987419;28;20393;-60
2023/06/23 06:03:14;;;;;;;7.77;6.10;;;20.30;99.90;;;;;;4993732;28;20812;-60
2023/06/23 06:05:45;;;;;;;8.93;6.83;;;20.30;99.90;;;;;;4993974;28;20455;-60
2023/06/23 06:08:12;;;;;;;8.40;7.30;;;20.30;99.90;;;;;;4994505;28;20835;-60
2023/06/23 06:10:39;;;;;;;7.90;7.07;;;20.30;99.90;;;;;;4994230;28;20501;-60
2023/06/23 06:13:06;;;;;;;10.10;6.70;;;20.40;99.90;;;;;;4994329;28;20466;-60
2023/06/23 06:15:33;;;;;;;7.63;6.43;;;20.40;99.90;;;;;;4993671;28;20522;-60
2023/06/23 06:18:04;;;;;;;8.20;6.70;;;20.60;99.90;;;;;;4994189;28;20762;-62
2023/06/23 06:20:31;;;;;;;7.13;6.00;;;20.60;99.90;;;;;;4994408;28;20390;-64
2023/06/23 06:22:57;;;;;;;7.20;6.43;;;20.60;99.90;;;;;;4994307;28;20414;-64
2023/06/23 06:25:26;;;;;;;7.27;6.00;;;20.70;99.90;;;;;;4993853;28;20458;-63
2023/06/23 06:27:53;;;;;;;7.20;5.37;;;20.80;99.90;;;;;;4994170;28;20403;-63
2023/06/23 06:30:21;;;;;;;7.60;6.77;;;20.90;99.90;;;;;;4993701;28;20435;-63
2023/06/23 06:32:49;;;;;;;6.73;5.77;;;21.00;99.90;;;;;;4993897;28;20446;-66
2023/06/23 06:35:16;;;;;;;7.13;6.43;;;21.00;99.90;;;;;;4992290;28;20427;-61
2023/06/23 06:37:47;;;;;;;7.70;6.10;;;21.10;99.90;;;;;;4994013;28;20438;-62
2023/06/23 06:40:15;;;;;;;7.40;6.37;;;21.10;99.90;;;;;;4994174;28;20810;-60
2023/06/23 06:42:41;;;;;;;7.47;6.40;;;21.10;99.90;;;;;;4992788;28;20383;-64
2023/06/23 06:45:07;;;;;;;6.63;6.03;;;21.20;99.90;;;;;;4993082;28;20457;-61
2023/06/23 06:47:40;;;;;;;6.23;5.63;;;21.30;99.90;;;;;;4994103;28;20177;-62
2023/06/23 06:50:07;;;;;;;6.63;5.93;;;21.30;99.90;;;;;;4994039;28;20402;-60
2023/06/23 06:52:35;;;;;;;8.50;5.97;;;21.50;99.90;;;;;;4993881;28;20462;-64
2023/06/23 06:55:02;;;;;;;7.10;6.40;;;21.50;99.90;;;;;;4993311;28;20428;-60
2023/06/23 06:57:29;;;;;;;5.40;4.77;;;21.50;99.90;;;;;;4994396;28;20767;-64
2023/06/23 06:59:54;;;;;;;8.97;6.30;;;21.50;99.90;;;;;;4993465;28;20415;-63
2023/06/23 07:02:20;;;;;;;9.33;6.27;;;21.50;99.90;;;;;;4993920;28;20468;-60
2023/06/23 07:04:47;;;;;;;6.63;5.90;;;21.40;99.90;;;;;;4993319;28;20194;-63
2023/06/23 07:07:15;;;;;;;6.00;5.30;;;21.50;99.90;;;;;;4992337;28;20962;-61
2023/06/23 07:09:41;;;;;;;7.90;7.20;;;21.50;99.90;;;;;;4993543;28;20417;-62
2023/06/23 07:12:07;;;;;;;6.30;5.70;;;21.50;99.90;;;;;;4993278;28;20452;-62
2023/06/23 07:14:34;;;;;;;5.47;4.80;;;21.60;99.90;;;;;;4993026;28;20190;-63
2023/06/23 07:17:00;;;;;;;7.70;6.53;;;21.60;99.90;;;;;;4993530;28;20403;-60
2023/06/23 07:19:25;;;;;;;5.63;5.00;;;21.60;99.90;;;;;;4993661;28;20414;-60
2023/06/23 07:21:51;;;;;;;6.80;6.10;;;21.60;99.90;;;;;;4993693;28;20217;-60
2023/06/23 07:24:16;;;;;;;5.23;4.33;;;21.90;99.90;;;;;;4993168;28;20203;-60
2023/06/23 07:26:42;;;;;;;5.43;4.77;;;22.40;99.90;;;;;;4993223;28;20176;-61
2023/06/23 07:29:07;;;;;;;7.77;4.97;;;22.70;99.90;;;;;;4994176;28;20221;-58
2023/06/23 07:31:35;;;;;;;6.33;5.23;;;22.80;99.90;;;;;;4984265;28;20689;-60
2023/06/23 07:34:00;;;;;;;4.47;4.07;;;22.60;99.90;;;;;;4976803;28;20176;-60
2023/06/23 07:36:26;;;;;;;5.10;4.60;;;22.40;99.90;;;;;;4977789;28;20403;-60
2023/06/23 07:38:52;;;;;;;5.43;5.00;;;22.30;99.90;;;;;;4977534;28;20216;-62
2023/06/23 07:41:17;;;;;;;5.80;4.90;;;22.10;99.90;;;;;;4981565;28;20180;-60
2023/06/23 07:43:43;;;;;;;5.50;4.90;;;21.90;99.90;;;;;;4990486;28;20588;-59
2023/06/23 07:46:09;;;;;;;4.90;4.40;;;21.80;99.90;;;;;;4980141;28;20203;-61
2023/06/23 07:48:35;;;;;;;5.67;5.20;;;21.70;99.90;;;;;;4992151;28;20780;-60
2023/06/23 07:51:01;;;;;;;6.30;4.50;;;21.60;99.90;;;;;;4996511;28;20503;-61
2023/06/23 07:53:26;;;;;;;8.60;5.00;;;21.50;99.90;;;;;;4996423;28;20294;-60
2023/06/23 07:55:53;;;;;;;6.10;5.50;;;21.30;99.90;;;;;;4996652;28;20211;-62
2023/06/23 07:58:18;;;;;;;4.53;4.13;;;21.20;99.90;;;;;;4996939;28;20169;-61
2023/06/23 08:00:44;;;;;;;5.57;4.97;;;21.10;99.90;;;;;;4996937;28;20742;-60
2023/06/23 08:03:10;;;;;;;6.80;6.20;;;21.00;99.90;;;;;;4995617;28;20178;-60
2023/06/23 08:05:36;;;;;;;5.33;4.80;;;20.90;99.90;;;;;;4994173;28;20239;-60
2023/06/23 08:08:02;;;;;;;6.37;5.60;;;20.80;99.90;;;;;;4994580;28;20176;-60
2023/06/23 08:10:27;;;;;;;5.93;4.63;;;20.80;99.90;;;;;;4994626;28;20468;-59
2023/06/23 08:12:53;;;;;;;5.07;4.57;;;21.00;99.90;;;;;;4994408;28;20202;-60
2023/06/23 08:15:18;;;;;;;4.77;4.37;;;21.10;99.90;;;;;;4994019;28;20663;-59
2023/06/23 08:17:44;;;;;;;4.60;4.20;;;21.20;99.90;;;;;;4994651;28;20183;-60
2023/06/23 08:20:10;;;;;;;5.40;3.93;;;21.40;99.90;;;;;;4996388;28;20172;-59
2023/06/23 08:22:39;;;;;;;4.53;4.17;;;21.60;99.90;;;;;;4996360;28;20179;-60
2023/06/23 08:25:06;;;;;;;4.67;4.27;;;21.90;99.90;;;;;;4996045;28;20524;-60
2023/06/23 08:27:32;;;;;;;4.40;4.00;;;22.10;99.90;;;;;;4996378;28;20926;-59
2023/06/23 08:29:58;;;;;;;5.13;4.53;;;22.20;99.90;;;;;;4996389;28;20385;-60
2023/06/23 08:32:23;;;;;;;5.40;4.60;;;22.30;99.90;;;;;;4995763;28;20654;-59
2023/06/23 08:34:49;;;;;;;4.67;3.73;;;22.40;99.90;;;;;;4995664;28;20196;-59
2023/06/23 08:37:15;;;;;;;4.40;4.00;;;22.50;99.90;;;;;;4996162;28;20176;-58
2023/06/23 08:39:40;;;;;;;3.60;3.30;;;22.60;99.90;;;;;;4995991;28;20191;-59
2023/06/23 08:42:07;;;;;;;5.43;4.80;;;22.90;99.90;;;;;;4996080;28;20222;-58
2023/06/23 08:44:35;;;;;;;3.70;3.40;;;23.50;99.90;;;;;;4994431;28;20529;-60
2023/06/23 08:47:04;;;;;;;3.43;3.13;;;24.50;99.90;;;;;;4995374;28;20430;-59
2023/06/23 08:49:31;;;;;;;4.63;4.23;;;25.40;98.80;;;;;;4995836;28;20410;-59
2023/06/23 08:51:57;;;;;;;4.30;3.87;;;26.40;96.90;;;;;;4995582;28;20422;-60
2023/06/23 08:54:23;;;;;;;5.17;4.67;;;27.40;95.50;;;;;;4976576;28;20454;-60
2023/06/23 08:56:49;;;;;;;4.50;4.10;;;28.20;93.20;;;;;;4975487;28;20171;-59
2023/06/23 08:59:15;;;;;;;4.50;4.10;;;28.80;91.60;;;;;;4976579;28;20399;-61
2023/06/23 09:01:41;;;;;;;5.10;4.33;;;29.40;90.30;;;;;;4994907;28;20441;-60
2023/06/23 09:04:07;;;;;;;5.00;4.50;;;29.70;88.60;;;;;;4991814;28;20762;-60
2023/06/23 09:06:33;;;;;;;3.83;3.53;;;30.10;87.60;;;;;;4980239;28;20458;-59
2023/06/23 09:08:59;;;;;;;4.20;3.80;;;30.70;84.10;;;;;;4976076;28;20180;-61
2023/06/23 09:11:25;;;;;;;4.50;4.10;;;31.40;82.50;;;;;;4992684;28;20176;-62
2023/06/23 09:13:56;;;;;;;3.73;3.47;;;32.30;78.10;;;;;;4995130;28;20418;-62
2023/06/23 09:16:23;;;;;;;4.17;3.87;;;32.90;77.40;;;;;;4992167;28;20442;-66
2023/06/23 09:18:50;;;;;;;5.10;4.70;;;33.40;75.00;;;;;;4993795;28;20932;-61
2023/06/23 09:21:16;;;;;;;5.20;4.70;;;33.50;74.10;;;;;;4986310;28;20502;-66
2023/06/23 09:24:01;;;;;;;4.20;3.90;;;33.70;72.40;;;;;;4984600;28;20481;-63
2023/06/23 09:26:26;;;;;;;4.77;4.37;;;34.00;71.70;;;;;;4994936;28;20175;-65
2023/06/23 09:28:52;;;;;;;4.60;4.20;;;34.20;71.40;;;;;;4994965;28;20410;-62
2023/06/23 09:31:18;;;;;;;5.83;5.33;;;34.70;70.50;;;;;;4994961;28;20638;-60
2023/06/23 09:33:51;;;;;;;5.40;5.00;;;34.80;68.30;;;;;;4994506;28;20190;-63
2023/06/23 09:36:17;;;;;;;4.00;3.70;;;34.80;68.40;;;;;;4994633;28;20442;-61
2023/06/23 09:38:43;;;;;;;4.40;4.13;;;34.90;68.30;;;;;;4994874;28;20407;-62
2023/06/23 09:41:14;;;;;;;4.63;4.23;;;35.30;64.40;;;;;;4994560;28;20407;-65
2023/06/23 09:43:53;;;;;;;3.93;3.73;;;35.40;63.80;;;;;;4994355;28;20415;-64
2023/06/23 09:46:20;;;;;;;4.93;4.53;;;35.10;63.60;;;;;;4994291;28;20426;-64
2023/06/23 09:48:51;;;;;;;4.63;4.33;;;34.70;64.50;;;;;;4993360;28;20419;-60
2023/06/23 09:51:20;;;;;;;4.10;3.67;;;34.10;65.40;;;;;;4994981;28;20789;-61
2023/06/23 09:53:47;;;;;;;4.10;3.73;;;33.70;66.80;;;;;;4994256;28;20415;-61
2023/06/23 09:56:21;;;;;;;4.03;3.63;;;33.60;67.20;;;;;;4994097;28;20828;-65
2023/06/23 09:58:48;;;;;;;3.93;3.63;;;33.80;68.10;;;;;;4994690;28;20422;-60
2023/06/23 10:01:15;;;;;;;3.70;3.43;;;34.10;66.80;;;;;;4994467;28;20838;-60
2023/06/23 10:03:52;;;;;;;3.93;3.27;;;34.40;64.00;;;;;;4994168;28;20454;-61
2023/06/23 10:06:30;;;;;;;3.47;3.23;;;34.80;61.40;;;;;;4994187;28;20452;-62
2023/06/23 10:08:57;;;;;;;3.00;2.80;;;34.60;61.50;;;;;;4994260;28;20415;-62
2023/06/23 10:11:34;;;;;;;4.17;3.83;;;33.90;61.80;;;;;;4994671;28;20405;-60
2023/06/23 10:14:10;;;;;;;4.00;3.70;;;33.10;64.20;;;;;;4994110;28;20409;-61
2023/06/23 10:16:41;;;;;;;4.03;3.73;;;32.90;64.70;;;;;;4994139;28;20440;-62
2023/06/23 10:19:07;;;;;;;3.40;3.20;;;32.70;65.50;;;;;;4994294;28;20426;-61
2023/06/23 10:21:33;;;;;;;3.43;3.17;;;32.20;65.50;;;;;;4993873;28;20415;-62
2023/06/23 10:24:05;;;;;;;3.73;3.43;;;31.60;66.50;;;;;;4989226;28;20408;-63
2023/06/23 10:26:34;;;;;;;3.90;3.43;;;30.40;67.80;;;;;;4987827;28;20427;-62
2023/06/23 10:29:06;;;;;;;3.60;3.30;;;29.30;70.60;;;;;;4994219;28;20385;-59
2023/06/23 10:31:34;;;;;;;4.20;3.67;;;28.50;73.50;;;;;;4994207;28;20407;-60
2023/06/23 10:34:01;;;;;;;5.67;5.17;;;27.60;77.20;;;;;;4993460;28;20476;-61
2023/06/23 10:36:30;;;;;;;4.17;3.77;;;27.40;80.60;;;;;;4993854;28;20879;-59
2023/06/23 10:38:59;;;;;;;3.50;3.20;;;27.40;78.60;;;;;;4993725;28;20766;-59
2023/06/23 10:41:26;;;;;;;3.43;3.13;;;27.00;80.60;;;;;;4993989;28;20389;-61
2023/06/23 10:43:54;;;;;;;2.80;2.60;;;27.00;81.50;;;;;;4993572;28;20504;-63
2023/06/23 10:46:22;;;;;;;3.03;2.83;;;27.10;79.50;;;;;;4993658;28;20526;-64
2023/06/23 10:48:48;;;;;;;3.63;3.23;;;27.00;79.60;;;;;;4993717;28;20390;-63
2023/06/23 10:51:14;;;;;;;2.77;2.57;;;27.20;78.70;;;;;;4993463;28;20411;-64
2023/06/23 10:53:57;;;;;;;3.17;2.90;;;27.00;78.70;;;;;;4991625;28;20804;-65
2023/06/23 10:56:39;;;;;;;3.70;3.40;;;26.50;80.50;;;;;;4993180;28;20401;-64
2023/06/23 10:59:30;;;;;;;3.77;3.13;;;26.20;82.70;;;;;;4993690;28;20905;-65
2023/06/23 11:02:03;;;;;;;2.80;2.60;;;25.90;83.80;;;;;;4992806;28;20389;-60
2023/06/23 11:04:38;;;;;;;3.40;3.10;;;25.70;84.30;;;;;;4993136;28;20406;-64
2023/06/23 11:07:14;;;;;;;3.30;3.00;;;26.20;84.50;;;;;;4993253;28;20816;-63
2023/06/23 11:09:55;;;;;;;3.97;3.40;;;26.80;83.70;;;;;;4990597;28;20397;-62
2023/06/23 11:12:33;;;;;;;3.67;3.43;;;27.50;82.50;;;;;;4996886;28;20437;-61
2023/06/23 11:15:08;;;;;;;2.87;2.67;;;28.10;79.50;;;;;;4996706;28;20412;-60
2023/06/23 11:17:45;;;;;;;2.90;2.70;;;28.30;78.00;;;;;;4997099;28;20396;-60
2023/06/23 11:20:31;;;;;;;3.70;3.40;;;28.00;79.30;;;;;;4997397;28;20410;-60
2023/06/23 11:23:06;;;;;;;3.70;3.37;;;27.70;79.10;;;;;;4997205;28;20883;-62
2023/06/23 11:25:42;;;;;;;3.10;2.90;;;27.20;80.70;;;;;;4995813;28;20429;-63
2023/06/23 11:28:34;;;;;;;2.93;2.73;;;27.00;82.70;;;;;;4997357;28;20416;-63
2023/06/23 11:31:07;;;;;;;3.20;2.93;;;27.00;83.70;;;;;;4997319;28;20393;-62
2023/06/23 11:33:37;;;;;;;3.73;3.40;;;27.00;83.80;;;;;;4996384;28;20543;-60
2023/06/23 11:36:08;;;;;;;3.43;2.90;;;27.00;82.00;;;;;;4992743;28;20471;-60
2023/06/23 11:38:36;;;;;;;2.53;2.33;;;27.00;82.90;;;;;;4983345;28;20408;-59
2023/06/23 11:41:02;;;;;;;3.03;2.80;;;27.00;82.90;;;;;;4996945;28;20381;-60
2023/06/23 11:43:37;;;;;;;2.60;2.43;;;27.10;82.90;;;;;;4996874;28;20388;-58
2023/06/23 11:46:10;;;;;;;3.33;3.10;;;27.10;83.10;;;;;;4996802;28;20445;-64
2023/06/23 11:48:39;;;;;;;3.70;3.33;;;27.00;81.20;;;;;;4996028;28;20576;-60
2023/06/23 11:51:06;;;;;;;3.20;3.00;;;26.70;82.80;;;;;;4996306;28;20419;-62
2023/06/23 11:53:32;;;;;;;2.63;2.53;;;26.50;84.80;;;;;;4996339;28;20467;-63
2023/06/23 11:55:59;;;;;;;3.03;2.73;;;26.50;85.00;;;;;;4996611;28;20444;-64
2023/06/23 11:58:29;;;;;;;2.57;2.47;;;26.50;83.90;;;;;;4996312;28;20426;-61
2023/06/23 12:00:55;;;;;;;2.80;2.60;;;26.60;84.60;;;;;;4996756;28;20387;-66
2023/06/23 12:03:20;;;;;;;2.70;2.50;;;26.70;82.90;;;;;;4996257;28;20445;-61
2023/06/23 12:05:46;;;;;;;2.87;2.67;;;26.80;81.60;;;;;;4995612;28;20681;-61
2023/06/23 12:08:13;;;;;;;2.77;2.57;;;26.80;81.90;;;;;;4995602;28;20523;-60
2023/06/23 12:10:40;;;;;;;3.70;2.73;;;26.70;81.60;;;;;;4995828;28;20403;-61
2023/06/23 12:13:10;;;;;;;3.20;2.93;;;26.80;82.50;;;;;;4995651;28;20444;-62
2023/06/23 12:15:43;;;;;;;6.10;3.03;;;26.80;81.50;;;;;;4995030;28;20457;-61
2023/06/23 12:18:09;;;;;;;2.80;2.60;;;26.80;83.30;;;;;;4995516;28;20424;-62
2023/06/23 12:20:41;;;;;;;2.90;2.67;;;26.70;84.60;;;;;;4984422;28;20513;-62
2023/06/23 12:23:13;;;;;;;3.10;2.90;;;26.80;84.00;;;;;;4995187;28;20436;-61
2023/06/23 12:25:47;;;;;;;3.30;2.33;;;26.90;83.30;;;;;;4995079;28;20450;-62
2023/06/23 12:28:19;;;;;;;3.20;2.90;;;27.10;82.90;;;;;;4995373;28;20391;-61
2023/06/23 12:30:48;;;;;;;1.97;1.87;;;27.20;81.60;;;;;;4995561;28;20421;-62
2023/06/23 12:33:19;;;;;;;2.90;2.23;;;27.30;79.40;;;;;;4994949;28;20434;-62
2023/06/23 12:36:01;;;;;;;2.67;2.47;;;27.40;76.80;;;;;;4993921;28;20409;-62
2023/06/23 12:38:28;;;;;;;2.80;2.60;;;27.50;79.60;;;;;;4995940;28;20417;-62
2023/06/23 12:40:54;;;;;;;4.00;2.50;;;27.70;78.20;;;;;;4995656;28;20420;-63
2023/06/23 12:43:21;;;;;;;2.37;2.17;;;27.80;76.10;;;;;;4995751;28;20513;-62
2023/06/23 12:45:53;;;;;;;2.70;2.17;;;27.80;77.70;;;;;;4995953;28;20460;-63
2023/06/23 12:48:22;;;;;;;1.90;1.80;;;27.90;77.00;;;;;;4995949;28;20410;-62
2023/06/23 12:50:54;;;;;;;2.63;2.43;;;27.80;76.60;;;;;;4995944;28;20401;-62
2023/06/23 12:53:20;;;;;;;2.10;2.00;;;27.70;76.10;;;;;;4995317;28;20466;-61
2023/06/23 12:55:45;;;;;;;1.97;1.87;;;27.40;74.60;;;;;;4995254;28;20536;-62
2023/06/23 12:58:11;;;;;;;2.00;1.90;;;27.20;75.20;;;;;;4995777;28;20182;-61
2023/06/23 13:00:37;;;;;;;2.40;2.20;;;26.80;76.60;;;;;;4995649;28;20253;-61
2023/06/23 13:03:04;;;;;;;2.60;2.23;;;26.50;78.40;;;;;;4995621;28;20188;-61
2023/06/23 13:05:30;;;;;;;2.30;2.10;;;26.10;79.60;;;;;;4994650;28;20227;-63
2023/06/23 13:07:57;;;;;;;1.70;1.60;;;25.70;80.70;;;;;;4995431;28;20437;-63
2023/06/23 13:10:23;;;;;;;2.60;2.40;;;25.50;81.20;;;;;;4995397;28;20442;-61
2023/06/23 13:12:48;;;;;;;1.90;1.67;;;25.20;82.60;;;;;;4995168;28;20459;-61
2023/06/23 13:15:14;;;;;;;3.07;2.87;;;25.20;84.30;;;;;;4994973;28;20192;-61
2023/06/23 13:17:40;;;;;;;2.23;2.13;;;25.30;83.20;;;;;;4995226;28;20197;-62
2023/06/23 13:20:06;;;;;;;2.00;1.90;;;25.30;83.20;;;;;;4995303;28;20176;-61
2023/06/23 13:22:32;;;;;;;2.37;2.23;;;25.20;84.30;;;;;;4995361;28;20508;-62
2023/06/23 13:24:58;;;;;;;2.30;2.10;;;25.10;83.80;;;;;;4994479;28;20509;-62
2023/06/23 13:27:24;;;;;;;2.10;1.90;;;25.00;83.80;;;;;;4995107;28;20187;-62
2023/06/23 13:29:50;;;;;;;2.30;2.10;;;25.00;84.40;;;;;;4994571;28;20191;-61
2023/06/23 13:32:17;;;;;;;2.87;2.00;;;25.00;84.50;;;;;;4994958;28;20815;-61
2023/06/23 13:34:42;;;;;;;2.80;2.60;;;25.10;84.20;;;;;;4994382;28;20529;-60
2023/06/23 13:37:08;;;;;;;2.83;2.63;;;25.20;82.90;;;;;;4994706;28;20494;-61
2023/06/23 13:39:34;;;;;;;1.50;1.40;;;25.30;79.70;;;;;;4994767;28;20179;-62
2023/06/23 13:42:00;;;;;;;1.83;1.67;;;25.40;77.90;;;;;;4994719;28;20183;-61
2023/06/23 13:44:26;;;;;;;1.93;1.83;;;25.40;76.90;;;;;;4994320;28;20906;-64
2023/06/23 13:46:51;;;;;;;1.97;1.87;;;25.50;76.40;;;;;;4994870;28;20397;-62
2023/06/23 13:49:17;;;;;;;1.97;1.87;;;25.50;77.10;;;;;;4994814;28;20183;-62
2023/06/23 13:51:42;;;;;;;1.80;1.67;;;25.50;78.20;;;;;;4994398;28;20203;-61
2023/06/23 13:54:08;;;;;;;1.70;1.60;;;25.40;76.00;;;;;;4993591;28;20175;-62
2023/06/23 13:56:34;;;;;;;2.30;2.10;;;25.50;76.70;;;;;;4995151;28;20183;-61
2023/06/23 13:59:00;;;;;;;1.80;1.70;;;25.60;77.60;;;;;;4994541;28;20172;-63
2023/06/23 14:01:26;;;;;;;2.00;1.90;;;25.70;76.30;;;;;;4994621;28;20394;-62
2023/06/23 14:03:51;;;;;;;1.50;1.30;;;25.90;75.50;;;;;;4994258;28;20179;-62
2023/06/23 14:06:18;;;;;;;1.70;1.60;;;26.10;74.80;;;;;;4993899;28;20224;-62
2023/06/23 14:08:44;;;;;;;2.23;2.03;;;26.20;74.10;;;;;;4994447;28;20697;-62
2023/06/23 14:11:10;;;;;;;2.30;2.10;;;26.30;74.90;;;;;;4994291;28;20418;-62
2023/06/23 14:13:36;;;;;;;2.00;1.90;;;26.40;75.60;;;;;;4993860;28;20450;-60
2023/06/23 14:16:02;;;;;;;2.10;1.53;;;26.60;74.30;;;;;;4994263;28;20427;-62
2023/06/23 14:18:27;;;;;;;2.20;2.00;;;26.40;73.50;;;;;;4994216;28;20179;-62
2023/06/23 14:20:53;;;;;;;1.83;1.73;;;26.10;74.70;;;;;;4994159;28;20545;-63
2023/06/23 14:23:19;;;;;;;2.57;2.40;;;25.70;74.70;;;;;;4993688;28;20183;-62
2023/06/23 14:25:45;;;;;;;2.00;1.90;;;25.50;76.00;;;;;;4994109;28;20199;-63
2023/06/23 14:28:10;;;;;;;2.70;2.50;;;25.30;76.70;;;;;;4994147;28;20401;-61
2023/06/23 14:30:36;;;;;;;1.70;1.60;;;25.30;75.50;;;;;;4994552;28;20237;-62
2023/06/23 14:33:02;;;;;;;2.03;1.63;;;25.30;76.20;;;;;;4993970;28;20203;-63
2023/06/23 14:35:28;;;;;;;2.17;2.07;;;25.20;76.40;;;;;;4993473;28;20654;-61
2023/06/23 14:37:54;;;;;;;1.87;1.77;;;25.20;76.80;;;;;;4993900;28;20521;-63
2023/06/23 14:40:19;;;;;;;2.07;1.90;;;25.00;77.40;;;;;;4993910;28;20184;-63
2023/06/23 14:42:45;;;;;;;2.60;2.40;;;25.00;78.70;;;;;;4993038;28;20206;-62
2023/06/23 14:45:11;;;;;;;1.90;1.80;;;24.90;78.70;;;;;;4993557;28;20207;-60
2023/06/23 14:47:39;;;;;;;2.50;2.30;;;24.90;78.30;;;;;;4993898;28;20472;-62
2023/06/23 14:50:07;;;;;;;2.37;2.17;;;24.90;78.60;;;;;;4993976;28;20415;-61
2023/06/23 14:52:34;;;;;;;1.70;1.60;;;24.80;78.60;;;;;;4993183;28;20462;-62
2023/06/23 14:55:00;;;;;;;2.57;2.27;;;24.80;79.10;;;;;;4993468;28;20413;-61
2023/06/23 14:57:27;;;;;;;1.83;1.73;;;24.80;78.50;;;;;;4994135;28;20910;-63
2023/06/23 14:59:52;;;;;;;2.23;2.10;;;24.60;77.90;;;;;;4993980;28;20258;-61
2023/06/23 15:02:18;;;;;;;1.70;1.60;;;24.40;76.30;;;;;;4993975;28;20428;-62
2023/06/23 15:04:43;;;;;;;2.00;1.80;;;24.30;77.10;;;;;;4993313;28;20665;-61
2023/06/23 15:07:09;;;;;;;2.80;2.50;;;24.30;76.40;;;;;;4993358;28;20195;-63
2023/06/23 15:09:34;;;;;;;1.80;1.70;;;24.40;76.10;;;;;;4993639;28;20195;-60
2023/06/23 15:12:00;;;;;;;1.67;1.57;;;24.40;76.50;;;;;;4993801;28;20203;-61
2023/06/23 15:14:26;;;;;;;1.67;1.57;;;24.50;75.50;;;;;;4993062;28;20202;-62
2023/06/23 15:16:52;;;;;;;2.23;1.80;;;24.50;75.60;;;;;;4992343;28;20182;-60
2023/06/23 15:19:18;;;;;;;1.90;1.80;;;24.50;75.90;;;;;;4993648;28;20749;-61
2023/06/23 15:21:43;;;;;;;2.50;2.30;;;24.60;76.70;;;;;;4993509;28;20271;-60
2023/06/23 15:24:09;;;;;;;3.27;2.43;;;24.60;75.90;;;;;;4993208;28;20180;-61
2023/06/23 15:26:35;;;;;;;2.90;2.03;;;24.70;76.00;;;;;;4993818;28;20260;-63
2023/06/23 15:29:02;;;;;;;1.87;1.77;;;24.70;75.70;;;;;;4993653;28;20255;-63
2023/06/23 15:31:28;;;;;;;2.00;1.90;;;24.70;76.20;;;;;;4993612;28;20180;-60
2023/06/23 15:33:54;;;;;;;1.70;1.60;;;24.80;76.30;;;;;;4993023;28;20378;-61
2023/06/23 15:36:20;;;;;;;2.00;1.90;;;24.80;76.40;;;;;;4993224;28;20208;-61
2023/06/23 15:38:45;;;;;;;3.73;2.80;;;24.80;76.10;;;;;;4993560;28;20629;-61
2023/06/23 15:41:11;;;;;;;2.10;2.00;;;24.80;76.90;;;;;;4993847;28;20573;-62
2023/06/23 15:43:37;;;;;;;1.90;1.80;;;24.90;78.10;;;;;;4993593;28;20226;-62
2023/06/23 15:46:02;;;;;;;2.10;1.90;;;25.00;77.30;;;;;;4993639;28;20202;-61
2023/06/23 15:48:28;;;;;;;2.00;1.90;;;25.00;77.70;;;;;;4993094;28;20405;-62
2023/06/23 15:50:55;;;;;;;7.50;2.87;;;25.00;77.60;;;;;;4993339;28;20227;-61
2023/06/23 15:53:21;;;;;;;2.07;1.97;;;25.00;78.10;;;;;;4993854;28;20215;-61
2023/06/23 15:55:47;;;;;;;2.00;1.90;;;25.00;77.10;;;;;;4996965;28;20775;-61
2023/06/23 15:58:12;;;;;;;2.13;2.03;;;25.00;76.40;;;;;;4996679;28;20425;-61
2023/06/23 16:00:38;;;;;;;2.70;2.50;;;24.90;76.70;;;;;;4997198;28;20172;-62
2023/06/23 16:03:04;;;;;;;2.33;2.07;;;24.80;76.90;;;;;;4996726;28;20229;-61
2023/06/23 16:05:30;;;;;;;2.20;2.10;;;24.80;77.00;;;;;;4996518;28;20678;-62
2023/06/23 16:07:56;;;;;;;2.33;2.13;;;24.70;77.50;;;;;;4996948;28;20634;-62
2023/06/23 16:10:22;;;;;;;1.90;1.80;;;24.60;77.90;;;;;;4996914;28;20954;-61
2023/06/23 16:12:48;;;;;;;2.27;2.07;;;24.60;78.20;;;;;;4995407;28;20513;-62
2023/06/23 16:15:13;;;;;;;1.90;1.80;;;24.50;77.90;;;;;;4996228;28;20438;-62
2023/06/23 16:17:40;;;;;;;2.60;2.10;;;24.40;77.90;;;;;;4996255;28;20182;-61
2023/06/23 16:20:07;;;;;;;1.50;1.40;;;24.40;78.90;;;;;;4996627;28;20175;-61
2023/06/23 16:22:33;;;;;;;2.00;1.90;;;24.30;78.00;;;;;;4996654;28;20553;-61
2023/06/23 16:25:01;;;;;;;1.93;1.83;;;24.30;78.80;;;;;;4996064;28;20825;-63
2023/06/23 16:27:27;;;;;;;2.10;1.90;;;24.30;78.40;;;;;;4996783;28;20241;-63
2023/06/23 16:29:53;;;;;;;2.13;1.93;;;24.20;78.90;;;;;;4995157;28;21043;-62
2023/06/23 16:32:19;;;;;;;2.23;2.13;;;24.30;78.50;;;;;;4995100;28;20474;-63
2023/06/23 16:34:45;;;;;;;1.50;1.40;;;24.40;79.60;;;;;;4995621;28;20725;-62
2023/06/23 16:37:11;;;;;;;2.40;2.20;;;24.40;77.70;;;;;;4996224;28;20406;-63
2023/06/23 16:39:36;;;;;;;1.80;1.70;;;24.40;77.40;;;;;;4996080;28;20312;-63
2023/06/23 16:42:04;;;;;;;2.70;2.10;;;24.40;76.50;;;;;;4995517;28;20180;-62
2023/06/23 16:44:29;;;;;;;2.50;2.40;;;24.40;75.30;;;;;;4995146;28;20301;-62
2023/06/23 16:46:55;;;;;;;1.47;1.43;;;24.60;75.10;;;;;;4995875;28;20427;-61
2023/06/23 16:49:21;;;;;;;2.10;2.00;;;24.60;75.50;;;;;;4995602;28;20546;-63
2023/06/23 16:51:47;;;;;;;1.90;1.80;;;24.70;76.20;;;;;;4995751;28;20187;-62
2023/06/23 16:54:12;;;;;;;1.90;1.80;;;24.70;76.40;;;;;;4995072;28;20422;-63
2023/06/23 16:56:38;;;;;;;2.20;2.00;;;24.70;77.60;;;;;;4995255;28;20182;-62